Time;durP1;ratioP1;P1;durP2;ratioP2;P2;SDS_P1;SDS_P2;PMS_P1;PMS_P2;Temp;Humidity;BMP_temperature;BMP_pressure;BME280_temperature;BME280_humidity;BME280_pressure;Samples;Min_cycle;Max_cycle;Signal;HPM_P1;HPM_P2
2023/10/13 00:00:35;;;;;;;0.47;0.47;;;;;;;10.61;81.54;97477.84;5027743;28;20203;-63
2023/10/13 00:03:03;;;;;;;0.50;0.50;;;;;;;10.37;81.47;97431.75;5045883;28;20155;-62
2023/10/13 00:05:31;;;;;;;0.50;0.50;;;;;;;10.60;80.92;97477.06;5045349;28;20060;-63
2023/10/13 00:08:00;;;;;;;0.50;0.50;;;;;;;10.54;81.04;97478.47;5045969;28;20076;-64
2023/10/13 00:10:28;;;;;;;0.40;0.40;;;;;;;10.51;81.45;97473.66;5044892;28;20094;-63
2023/10/13 00:13:05;;;;;;;0.43;0.43;;;;;;;10.49;81.20;97476.00;5027277;28;20628;-62
2023/10/13 00:15:38;;;;;;;0.50;0.50;;;;;;;10.04;80.61;97392.56;5026144;28;20221;-63
2023/10/13 00:18:12;;;;;;;0.50;0.50;;;;;;;10.45;80.99;97469.53;5025584;28;20057;-63
2023/10/13 00:20:47;;;;;;;0.50;0.50;;;;;;;10.08;81.07;97420.38;5007524;28;20610;-63
2023/10/13 00:23:16;;;;;;;0.43;0.43;;;;;;;9.95;81.81;97416.03;5025543;28;20057;-63
2023/10/13 00:25:49;;;;;;;0.50;0.50;;;;;;;9.94;81.57;97420.00;5007411;28;20451;-62
2023/10/13 00:28:26;;;;;;;0.50;0.50;;;;;;;9.73;81.16;97431.31;5025075;28;20528;-63
2023/10/13 00:31:01;;;;;;;0.50;0.50;;;;;;;10.02;81.07;97480.69;5024680;28;20045;-63
2023/10/13 00:33:28;;;;;;;0.47;0.47;;;;;;;10.01;80.97;97459.72;5024731;28;20046;-62
2023/10/13 00:35:57;;;;;;;0.50;0.50;;;;;;;10.00;81.05;97462.84;5042443;28;20057;-63
2023/10/13 00:38:24;;;;;;;0.50;0.50;;;;;;;10.12;81.46;97474.66;5043647;28;20132;-64
2023/10/13 00:40:51;;;;;;;0.50;0.50;;;;;;;10.04;81.55;97463.72;5044272;28;20052;-63
2023/10/13 00:45:54;;;;;;;0.50;0.50;;;;;;;10.24;82.00;97451.63;5044664;28;20056;-63
2023/10/13 00:48:28;;;;;;;0.50;0.50;;;;;;;10.26;82.20;97460.34;5049541;28;20048;-62
2023/10/13 00:50:57;;;;;;;0.50;0.50;;;;;;;10.11;81.36;97458.41;5064320;28;20080;-62
2023/10/13 00:53:28;;;;;;;0.40;0.40;;;;;;;10.09;81.08;97455.19;5062255;28;20052;-62
2023/10/13 00:55:57;;;;;;;0.50;0.50;;;;;;;9.38;81.35;97358.47;5062692;28;20067;-62
2023/10/13 00:58:27;;;;;;;0.43;0.43;;;;;;;9.95;81.36;97452.84;5064141;28;20493;-63
2023/10/13 01:01:17;;;;;;;0.50;0.50;;;;;;;9.73;82.65;97436.84;5064243;28;20049;-61
2023/10/13 01:03:48;;;;;;;0.50;0.50;;;;;;;9.89;83.01;97440.44;5064122;28;20135;-61
2023/10/13 01:06:16;;;;;;;0.50;0.50;;;;;;;9.88;83.44;97436.03;5052664;28;76918;-63
2023/10/13 01:08:51;;;;;;;0.50;0.50;;;;;;;9.62;83.98;97396.22;5063392;28;20554;-62
2023/10/13 01:11:23;;;;;;;0.50;0.50;;;;;;;9.80;83.14;97442.53;5064020;28;20063;-63
2023/10/13 01:13:53;;;;;;;0.50;0.50;;;;;;;9.87;83.41;97441.94;5062901;28;20044;-63
2023/10/13 01:16:26;;;;;;;0.40;0.40;;;;;;;9.83;83.31;97441.81;5062575;28;20052;-62
2023/10/13 01:18:59;;;;;;;0.50;0.50;;;;;;;9.79;83.62;97451.19;5062537;28;20106;-63
2023/10/13 01:21:29;;;;;;;0.40;0.40;;;;;;;9.59;84.20;97430.13;5062887;28;20389;-63
2023/10/13 01:23:56;;;;;;;0.47;0.47;;;;;;;9.76;84.50;97438.91;5062548;28;20080;-63
2023/10/13 01:26:26;;;;;;;0.40;0.40;;;;;;;9.46;83.92;97371.31;5063749;28;20045;-63
2023/10/13 01:28:59;;;;;;;0.47;0.47;;;;;;;9.82;83.97;97433.88;5062915;28;20044;-62
2023/10/13 01:31:37;;;;;;;0.40;0.40;;;;;;;9.81;83.97;97433.09;5063695;28;20083;-63
2023/10/13 01:34:04;;;;;;;0.40;0.40;;;;;;;9.86;83.58;97430.06;5065820;28;20135;-63
2023/10/13 01:36:36;;;;;;;0.47;0.47;;;;;;;9.91;83.91;97421.50;5082250;28;20060;-63
2023/10/13 01:39:02;;;;;;;0.50;0.50;;;;;;;9.99;83.74;97428.81;5083992;28;20055;-63
2023/10/13 01:41:31;;;;;;;0.50;0.50;;;;;;;9.97;83.95;97424.81;5083917;28;20048;-63
2023/10/13 01:43:57;;;;;;;0.50;0.50;;;;;;;9.97;84.26;97425.63;5083899;28;20568;-63
2023/10/13 01:46:24;;;;;;;0.50;0.50;;;;;;;10.00;84.06;97435.97;5083305;28;20060;-63
2023/10/13 01:48:54;;;;;;;0.45;0.45;;;;;;;9.98;83.86;97427.22;5084091;28;20122;-62
2023/10/13 01:51:23;;;;;;;0.50;0.50;;;;;;;9.92;83.66;97423.13;5083267;28;20067;-63
2023/10/13 01:53:56;;;;;;;0.50;0.50;;;;;;;9.74;84.50;97421.84;5084096;28;20056;-63
2023/10/13 01:56:23;;;;;;;;;;;;;;;9.83;84.07;97419.69;5082622;28;20048;-62
2023/10/13 01:58:50;;;;;;;0.50;0.50;;;;;;;9.56;84.98;97409.53;5083909;28;19938;-62
2023/10/13 02:01:29;;;;;;;0.50;0.50;;;;;;;9.38;84.63;97397.16;5083688;28;20064;-62
2023/10/13 02:04:06;;;;;;;0.50;0.50;;;;;;;9.67;84.50;97421.66;5084450;28;20129;-64
2023/10/13 02:06:37;;;;;;;0.50;0.50;;;;;;;9.61;85.16;97423.06;5087951;28;20135;-62
2023/10/13 02:11:43;;;;;;;0.50;0.50;;;;;;;9.69;84.68;97418.53;5087813;28;20048;-62
2023/10/13 02:14:16;;;;;;;0.40;0.40;;;;;;;9.41;84.99;97373.53;5088101;28;20116;-63
2023/10/13 02:16:46;;;;;;;0.45;0.45;;;;;;;9.70;84.76;97417.38;5087717;28;20058;-62
2023/10/13 02:19:15;;;;;;;0.50;0.50;;;;;;;9.60;85.34;97404.88;5087904;28;20052;-62
2023/10/13 02:21:44;;;;;;;0.47;0.47;;;;;;;9.72;85.21;97418.63;5075223;28;20063;-62
2023/10/13 02:24:18;;;;;;;0.40;0.40;;;;;;;9.16;86.17;97346.03;5083658;28;20070;-63
2023/10/13 02:26:45;;;;;;;0.40;0.40;;;;;;;9.62;86.32;97413.63;5087569;28;20052;-62
2023/10/13 02:29:17;;;;;;;0.47;0.47;;;;;;;9.64;86.40;97405.75;5087632;28;20078;-64
2023/10/13 02:31:54;;;;;;;0.40;0.40;;;;;;;9.41;85.77;97356.94;5086064;28;20067;-62
2023/10/13 02:34:24;;;;;;;0.40;0.40;;;;;;;9.60;85.96;97393.81;5085977;28;20067;-62
2023/10/13 02:36:52;;;;;;;0.47;0.47;;;;;;;9.55;85.86;97402.38;5087008;28;20052;-62
2023/10/13 02:39:26;;;;;;;0.40;0.40;;;;;;;9.05;86.10;97322.03;5087272;28;20564;-63
2023/10/13 02:41:56;;;;;;;0.40;0.40;;;;;;;9.57;86.42;97405.59;5087322;28;20050;-62
2023/10/13 02:44:31;;;;;;;0.50;0.50;;;;;;;9.40;87.20;97396.81;5087028;28;20048;-62
2023/10/13 02:46:58;;;;;;;0.40;0.40;;;;;;;9.49;87.12;97398.25;5086730;28;20081;-63
2023/10/13 02:49:27;;;;;;;0.40;0.40;;;;;;;9.50;86.46;97399.84;5085858;28;20052;-62
2023/10/13 02:51:59;;;;;;;0.40;0.40;;;;;;;9.40;86.25;97383.81;5085450;28;20055;-63
2023/10/13 02:54:31;;;;;;;0.40;0.40;;;;;;;9.37;86.66;97378.97;5087517;28;20556;-62
2023/10/13 02:56:59;;;;;;;0.40;0.40;;;;;;;9.43;86.85;97394.16;5087020;28;20135;-62
2023/10/13 03:02:25;;;;;;;0.50;0.50;;;;;;;9.62;85.61;97388.75;5086761;28;20048;-62
2023/10/13 03:04:59;;;;;;;0.43;0.43;;;;;;;9.08;85.97;97326.84;5086849;28;20597;-62
2023/10/13 03:07:29;;;;;;;0.40;0.40;;;;;;;9.09;85.67;97320.16;5085305;28;20052;-63
2023/10/13 03:10:09;;;;;;;0.40;0.40;;;;;;;9.36;84.97;97360.00;5086017;28;20129;-63
2023/10/13 03:12:38;;;;;;;0.50;0.50;;;;;;;9.45;85.23;97394.63;5085631;28;20067;-62
2023/10/13 03:15:17;;;;;;;0.50;0.50;;;;;;;9.47;84.94;97388.72;5084300;28;20056;-61
2023/10/13 03:17:45;;;;;;;0.40;0.40;;;;;;;9.36;85.40;97365.53;5087136;28;20054;-62
2023/10/13 03:20:14;;;;;;;0.40;0.40;;;;;;;9.50;84.70;97383.25;5086337;28;20430;-62
2023/10/13 03:22:47;;;;;;;0.50;0.50;;;;;;;9.44;85.94;97379.16;5078954;28;20598;-62
2023/10/13 03:28:04;;;;;;;0.50;0.50;;;;;;;9.12;86.73;97316.69;5059195;28;20049;-62
2023/10/13 03:30:35;;;;;;;0.40;0.40;;;;;;;8.41;88.98;97390.41;5065925;28;20127;-63
2023/10/13 03:33:07;;;;;;;0.40;0.40;;;;;;;8.33;89.34;97363.72;5065998;28;20054;-63
2023/10/13 03:35:38;;;;;;;0.35;0.35;;;;;;;8.09;88.63;97306.59;5076272;28;20044;-62
2023/10/13 03:38:16;;;;;;;0.38;0.38;;;;;;;7.65;89.22;97291.00;5084945;28;20056;-62
2023/10/13 03:41:06;;;;;;;0.40;0.40;;;;;;;8.35;88.89;97380.72;5086265;28;20048;-62
2023/10/13 03:43:44;;;;;;;0.30;0.30;;;;;;;8.44;88.93;97378.66;5086344;28;20510;-62
2023/10/13 03:46:12;;;;;;;0.40;0.40;;;;;;;8.47;88.91;97373.22;5084033;28;20083;-62
2023/10/13 03:48:52;;;;;;;0.50;0.50;;;;;;;8.61;88.87;97372.84;5086459;28;20048;-62
2023/10/13 03:51:19;;;;;;;0.40;0.40;;;;;;;8.82;86.38;97379.00;5085975;28;20047;-62
2023/10/13 03:53:56;;;;;;;0.40;0.40;;;;;;;8.37;86.77;97307.47;5085474;28;20530;-63
2023/10/13 03:56:28;;;;;;;0.40;0.40;;;;;;;8.87;86.14;97375.97;5085404;28;20052;-63
2023/10/13 03:59:35;;;;;;;0.45;0.45;;;;;;;8.81;85.67;97369.91;5085767;28;20039;-62
2023/10/13 04:04:34;;;;;;;0.40;0.40;;;;;;;8.94;87.58;97376.19;5085532;28;20059;-62
2023/10/13 04:17:14;;;;;;;0.40;0.40;;;;;;;7.70;91.45;97399.13;5085227;28;20060;-62
2023/10/13 04:33:36;;;;;;;0.40;0.40;;;;;;;8.41;90.26;97338.72;5085446;28;20055;-62
2023/10/13 04:36:20;;;;;;;0.40;0.40;;;;;;;8.80;90.73;97387.63;5084834;28;20127;-62
2023/10/13 04:38:56;;;;;;;0.50;0.50;;;;;;;8.58;91.05;97332.16;5084412;28;20054;-63
2023/10/13 04:41:32;;;;;;;0.40;0.40;;;;;;;9.00;91.12;97386.66;5083307;28;20059;-62
2023/10/13 04:44:05;;;;;;;0.40;0.40;;;;;;;9.06;90.92;97389.94;5072876;28;20497;-62
2023/10/13 04:49:35;;;;;;;0.40;0.40;;;;;;;9.28;90.48;97383.84;5064271;28;20083;-61
2023/10/13 05:49:50;;;;;;;0.50;0.50;;;;;;;11.63;78.05;97452.38;5071649;28;20048;-60
2023/10/13 06:28:40;;;;;;;0.50;0.50;;;;;;;11.30;77.99;97369.66;5073037;28;20486;-64
2023/10/13 06:31:08;;;;;;;0.60;0.60;;;;;;;14.70;70.02;97492.44;5067245;28;20137;-63
2023/10/13 06:33:35;;;;;;;0.70;0.70;;;;;;;14.81;69.70;97454.28;5092850;28;20056;-65
2023/10/13 06:36:09;;;;;;;0.68;0.68;;;;;;;15.01;68.87;97424.91;5082277;28;20487;-69
2023/10/13 06:38:36;;;;;;;0.60;0.60;;;;;;;15.34;68.38;97454.59;5075722;28;20436;-69
2023/10/13 06:41:07;;;;;;;0.60;0.60;;;;;;;15.57;67.39;97450.34;5076639;28;20047;-59
2023/10/13 06:43:43;;;;;;;0.70;0.70;;;;;;;15.48;66.24;97408.03;5080780;28;20075;-61
2023/10/13 06:46:16;;;;;;;0.80;0.80;;;;;;;15.26;65.49;97325.38;5077446;28;20048;-65
2023/10/13 06:48:43;;;;;;;0.73;0.73;;;;;;;15.55;65.11;97338.25;5081918;28;20048;-61
2023/10/13 06:51:26;;;;;;;0.80;0.80;;;;;;;16.27;64.57;97447.72;5079374;28;20048;-59
2023/10/13 06:53:56;;;;;;;0.70;0.70;;;;;;;16.47;63.47;97434.22;5070236;28;20052;-60
2023/10/13 06:56:29;;;;;;;0.80;0.80;;;;;;;16.54;62.17;97435.00;5080703;28;20673;-63
2023/10/13 06:58:59;;;;;;;0.70;0.70;;;;;;;16.40;61.74;97384.63;5084643;28;20052;-61
2023/10/13 07:01:27;;;;;;;0.80;0.80;;;;;;;16.75;61.83;97441.78;5083504;28;20168;-63
2023/10/13 07:03:55;;;;;;;0.70;0.70;;;;;;;16.48;61.79;97419.81;5086634;28;20942;-63
2023/10/13 07:06:22;;;;;;;0.70;0.70;;;;;;;16.46;60.98;97388.66;5084168;28;20047;-60
2023/10/13 07:08:52;;;;;;;0.80;0.80;;;;;;;16.61;61.38;97423.78;5083390;28;20044;-63
2023/10/13 07:11:33;;;;;;;0.70;0.70;;;;;;;16.94;60.91;97432.97;5075381;28;20064;-64
2023/10/13 07:14:09;;;;;;;0.70;0.70;;;;;;;17.13;60.71;97441.72;5066001;28;20139;-61
2023/10/13 07:16:46;;;;;;;0.80;0.80;;;;;;;16.94;61.12;97432.97;5084604;28;20048;-58
2023/10/13 07:19:17;;;;;;;0.80;0.80;;;;;;;17.13;60.79;97447.34;5080126;28;20136;-59
2023/10/13 07:21:48;;;;;;;0.80;0.80;;;;;;;17.35;60.05;97406.06;5084133;28;20051;-61
2023/10/13 07:24:15;;;;;;;0.80;0.80;;;;;;;17.77;59.30;97434.72;5075687;28;20139;-65
2023/10/13 07:26:42;;;;;;;0.80;0.80;;;;;;;17.84;58.44;97431.09;5075884;28;20559;-64
2023/10/13 07:29:10;;;;;;;0.90;0.90;;;;;;;18.06;57.84;97430.56;5076540;28;20044;-63
2023/10/13 07:31:44;;;;;;;0.90;0.90;;;;;;;17.68;57.62;97329.88;5085614;28;20060;-61
2023/10/13 07:34:20;;;;;;;0.90;0.90;;;;;;;17.99;56.64;97337.28;5065076;28;20138;-61
2023/10/13 07:36:49;;;;;;;0.85;0.85;;;;;;;18.88;55.53;97431.56;5065571;28;20044;-60
2023/10/13 07:39:23;;;;;;;0.90;0.90;;;;;;;18.91;54.78;97408.25;5077881;28;20055;-60
2023/10/13 07:41:54;;;;;;;1.00;1.00;;;;;;;19.07;54.54;97411.31;5081022;28;20043;-62
2023/10/13 07:44:31;;;;;;;0.93;0.93;;;;;;;19.05;53.52;97357.56;5075086;28;20594;-64
2023/10/13 07:47:04;;;;;;;0.80;0.80;;;;;;;19.74;52.47;97421.00;5062187;28;20053;-61
2023/10/13 07:49:40;;;;;;;0.90;0.90;;;;;;;19.46;52.57;97383.59;5077989;28;20048;-67
2023/10/13 07:54:44;;;;;;;0.90;0.90;;;;;;;18.95;51.70;97291.09;5082807;28;20180;-66
2023/10/13 07:57:14;;;;;;;0.85;0.85;;;;;;;20.15;51.14;97416.03;5082773;28;20052;-62
2023/10/13 07:59:49;;;;;;;0.90;0.90;;;;;;;20.46;50.45;97400.69;5080881;28;20051;-61
2023/10/13 08:02:48;;;;;;;0.82;0.82;;;;;;;20.37;49.17;97370.28;5081978;28;20552;-61
2023/10/13 08:05:09;;;;;;;0.90;0.90;;;;;;;20.79;48.70;97396.91;5083812;28;20063;-63
2023/10/13 08:07:39;;;;;;;0.98;0.98;;;;;;;19.53;48.03;97153.09;5085392;28;20560;-62
2023/10/13 08:10:10;;;;;;;0.90;0.90;;;;;;;20.61;47.89;97328.88;5080836;28;20044;-61
2023/10/13 08:12:41;;;;;;;1.00;1.00;;;;;;;21.32;46.89;97396.75;5085145;28;20054;-62
2023/10/13 08:15:21;;;;;;;1.00;1.00;;;;;;;21.57;46.15;97397.06;5083214;28;20106;-59
2023/10/13 08:17:51;;;;;;;0.90;0.90;;;;;;;21.64;45.74;97370.75;5085363;28;20506;-63
2023/10/13 08:20:20;;;;;;;0.98;0.98;;;;;;;22.00;45.92;97385.69;5073553;28;20333;-60
2023/10/13 08:22:48;;;;;;;1.10;1.10;;;;;;;22.23;44.42;97377.88;5076619;28;20052;-69
2023/10/13 08:25:20;;;;;;;1.05;1.05;;;;;;;22.52;44.21;97377.22;5071916;28;20050;-62
2023/10/13 08:28:45;;;;;;;1.08;1.08;;;;;;;22.73;43.53;97376.69;5078149;28;20608;-62
2023/10/13 08:30:52;;;;;;;1.10;1.10;;;;;;;22.84;42.92;97378.00;5084381;28;20056;-61
2023/10/13 08:33:24;;;;;;;1.20;1.20;;;;;;;23.13;42.47;97375.22;5084572;28;20067;-59
2023/10/13 08:38:55;;;;;;;1.00;1.00;;;;;;;22.88;42.05;97301.63;5052509;28;20055;-60
2023/10/13 08:43:53;;;;;;;1.00;1.00;;;;;;;23.53;42.70;97366.03;5084697;28;20133;-65
2023/10/13 08:46:30;;;;;;;1.20;1.20;;;;;;;23.76;42.76;97370.59;5083924;28;20052;-61
2023/10/13 08:49:18;;;;;;;1.10;1.10;;;;;;;23.58;42.21;97302.47;5082991;28;20044;-62
2023/10/13 08:51:49;;;;;;;1.20;1.20;;;;;;;23.40;42.04;97279.56;5084573;28;20101;-61
2023/10/13 08:54:33;;;;;;;1.10;1.10;;;;;;;22.83;41.91;97259.78;5081083;28;20048;-67
2023/10/13 08:59:53;;;;;;;1.10;1.10;;;;;;;23.90;42.39;97368.16;5082034;28;20108;-63
2023/10/13 09:05:41;;;;;;;1.15;1.15;;;;;;;24.25;41.29;97366.28;5045300;28;20068;-62
2023/10/13 09:08:08;;;;;;;1.20;1.20;;;;;;;24.08;41.35;97353.47;5047841;28;20048;-60
2023/10/13 09:10:44;;;;;;;1.00;1.00;;;;;;;24.28;40.70;97368.22;5051382;28;20068;-66
2023/10/13 09:13:18;;;;;;;1.10;1.10;;;;;;;24.22;40.27;97341.72;5055291;28;20063;-63
2023/10/13 09:16:00;;;;;;;1.38;1.38;;;;;;;24.38;40.46;97358.59;5056973;28;20056;-61
2023/10/13 09:18:46;;;;;;;1.00;1.00;;;;;;;24.42;40.12;97356.41;5052869;28;20052;-62
2023/10/13 09:21:43;;;;;;;1.00;1.00;;;;;;;24.74;40.08;97378.88;5052794;28;20194;-68
2023/10/13 09:26:55;;;;;;;1.17;1.17;;;;;;;24.84;39.66;97372.06;5047643;28;20059;-64
2023/10/13 09:29:24;;;;;;;1.10;1.10;;;;;;;24.13;39.54;97338.78;5049555;28;20059;-66
2023/10/13 09:32:03;;;;;;;1.30;1.30;;;;;;;24.49;40.54;97373.19;5054559;28;20127;-62
2023/10/13 09:34:38;;;;;;;1.30;1.30;;;;;;;24.19;40.00;97314.31;5052166;28;20055;-67
2023/10/13 09:37:11;;;;;;;0.98;0.98;;;;;;;24.62;39.26;97325.81;5050243;28;20925;-64
2023/10/13 09:40:05;;;;;;;1.10;1.10;;;;;;;24.78;39.12;97356.88;5055447;28;20044;-63
2023/10/13 09:42:28;;;;;;;1.30;1.30;;;;;;;25.15;38.48;97352.31;5050290;28;20052;-61
2023/10/13 09:44:59;;;;;;;1.42;1.42;;;;;;;25.34;37.30;97344.81;5048844;28;20048;-61
2023/10/13 09:47:36;;;;;;;1.35;1.35;;;;;;;24.93;38.15;97346.63;5045271;28;20432;-62
2023/10/13 09:50:23;;;;;;;1.35;1.35;;;;;;;25.11;36.69;97357.34;5044514;28;20048;-65
2023/10/13 09:52:52;;;;;;;1.20;1.20;;;;;;;25.34;37.10;97341.97;5045054;28;20163;-62
2023/10/13 09:55:34;;;;;;;1.10;1.10;;;;;;;25.58;36.48;97335.38;5066475;28;20052;-65
2023/10/13 09:58:11;;;;;;;1.35;1.35;;;;;;;25.90;37.15;97319.97;5055193;28;20048;-64
2023/10/13 10:00:57;;;;;;;1.40;1.40;;;;;;;25.74;35.41;97249.22;5049990;28;20299;-63
2023/10/13 10:03:39;;;;;;;1.40;1.40;;;;;;;26.53;35.23;97320.25;5052451;28;20058;-61
2023/10/13 10:06:13;;;;;;;1.58;1.58;;;;;;;26.39;35.12;97242.09;5053949;28;20578;-63
2023/10/13 10:08:50;;;;;;;1.50;1.50;;;;;;;26.16;33.69;97216.31;5049364;28;20849;-69
2023/10/13 10:11:46;;;;;;;1.70;1.70;;;;;;;26.73;34.04;97221.16;5049652;28;20060;-70
2023/10/13 10:14:19;;;;;;;1.60;1.60;;;;;;;27.55;32.75;97287.38;5050134;28;20271;-69
2023/10/13 10:16:52;;;;;;;1.60;1.60;;;;;;;27.83;32.86;97303.13;5047925;28;20427;-68
2023/10/13 10:19:19;;;;;;;1.63;1.63;;;;;;;27.94;31.75;97301.38;5051101;28;20537;-70
2023/10/13 10:21:48;;;;;;;1.85;1.85;;;;;;;28.21;30.61;97299.69;5051125;28;20542;-69
2023/10/13 10:24:30;;;;;;;1.80;1.80;;;;;;;28.32;31.57;97289.34;5054041;28;20056;-71
2023/10/13 10:26:57;;;;;;;1.73;1.73;;;;;;;28.24;31.14;97264.53;5060694;28;20052;-70
2023/10/13 10:29:24;;;;;;;1.77;1.77;;;;;;;28.46;30.74;97282.94;5056402;28;20332;-69
2023/10/13 10:31:51;;;;;;;1.83;1.83;;;;;;;28.62;30.65;97290.34;5054972;28;20052;-68
2023/10/13 10:34:18;;;;;;;1.80;1.80;;;;;;;27.84;31.28;97288.41;5048686;28;20734;-68
2023/10/13 10:36:47;;;;;;;1.60;1.60;;;;;;;28.30;31.61;97285.41;5049944;28;20044;-69
2023/10/13 10:39:15;;;;;;;1.80;1.80;;;;;;;28.73;31.15;97290.59;5054448;28;20521;-68
2023/10/13 10:41:51;;;;;;;1.90;1.90;;;;;;;28.96;29.98;97293.44;5057293;28;20060;-66
2023/10/13 10:44:26;;;;;;;2.03;2.03;;;;;;;29.04;29.08;97239.63;5057368;28;20059;-67
2023/10/13 10:46:59;;;;;;;1.90;1.90;;;;;;;29.49;29.02;97262.09;5061769;28;20614;-63
2023/10/13 10:49:29;;;;;;;1.95;1.95;;;;;;;23.39;29.30;96285.63;5057989;28;20558;-63
2023/10/13 10:52:01;;;;;;;2.00;2.00;;;;;;;29.80;27.62;97271.00;5058041;28;20632;-69
2023/10/13 10:54:34;;;;;;;2.03;2.03;;;;;;;30.09;27.96;97265.28;5051630;28;20195;-63
2023/10/13 10:57:17;;;;;;;2.00;2.00;;;;;;;30.41;27.49;97264.25;5049514;28;20186;-69
2023/10/13 10:59:45;;;;;;;2.08;2.08;;;;;;;30.63;27.56;97278.88;5050598;28;20381;-63
2023/10/13 11:02:18;;;;;;;1.70;1.70;;;;;;;30.73;28.43;97260.28;5057679;28;20062;-61
2023/10/13 11:04:50;;;;;;;1.92;1.92;;;;;;;30.01;27.78;97231.88;5083783;28;20500;-61
2023/10/13 11:07:25;;;;;;;1.80;1.80;;;;;;;29.17;29.18;97266.66;5085353;28;20048;-64
2023/10/13 11:10:06;;;;;;;1.83;1.83;;;;;;;29.04;29.62;97265.31;5085137;28;20044;-64
2023/10/13 11:12:34;;;;;;;1.80;1.80;;;;;;;28.90;30.20;97231.81;5064279;28;20094;-63
2023/10/13 11:15:25;;;;;;;1.70;1.70;;;;;;;29.42;30.09;97260.41;5085152;28;20048;-61
2023/10/13 11:17:55;;;;;;;1.73;1.73;;;;;;;28.33;30.25;97181.88;5077525;28;20139;-63
2023/10/13 11:20:44;;;;;;;1.67;1.67;;;;;;;27.96;31.09;97201.97;5063662;28;20059;-65
2023/10/13 11:23:13;;;;;;;1.85;1.85;;;;;;;28.23;30.93;97240.97;5074074;28;20223;-68
2023/10/13 11:25:40;;;;;;;1.83;1.83;;;;;;;28.34;31.11;97266.06;5082333;28;20064;-64
2023/10/13 11:28:20;;;;;;;1.90;1.90;;;;;;;28.62;30.95;97267.53;5074137;28;20144;-63
2023/10/13 11:30:51;;;;;;;1.83;1.83;;;;;;;28.26;30.79;97216.41;5075589;28;20396;-62
2023/10/13 11:33:23;;;;;;;1.65;1.65;;;;;;;28.55;30.55;97239.38;5071874;28;20102;-59
2023/10/13 11:38:26;;;;;;;1.77;1.77;;;;;;;28.86;31.19;97254.06;5067569;28;20128;-61
2023/10/13 11:46:15;;;;;;;1.70;1.70;;;;;;;28.10;31.03;97249.75;5082892;28;20054;-63
2023/10/13 11:48:46;;;;;;;1.63;1.63;;;;;;;28.23;31.41;97223.06;5079364;28;20509;-65
2023/10/13 11:51:18;;;;;;;1.63;1.63;;;;;;;28.49;31.40;97207.09;5096430;28;20083;-66
2023/10/13 11:53:47;;;;;;;1.90;1.90;;;;;;;27.40;30.36;96996.97;5080635;28;20054;-64
2023/10/13 11:56:17;;;;;;;1.75;1.75;;;;;;;28.48;30.75;97188.44;5070217;28;20142;-69
2023/10/13 11:58:45;;;;;;;1.70;1.70;;;;;;;28.57;30.49;97246.19;5083517;28;20155;-62
2023/10/13 12:06:46;;;;;;;1.70;1.70;;;;;;;28.42;29.89;97179.75;5080836;28;20084;-64
2023/10/13 12:11:41;;;;;;;1.90;1.90;;;;;;;28.74;30.52;97229.44;5084430;28;20052;-62
2023/10/13 12:14:17;;;;;;;1.50;1.50;;;;;;;28.79;30.05;97237.28;5077757;28;20052;-62
2023/10/13 12:16:48;;;;;;;1.80;1.80;;;;;;;28.96;30.12;97218.47;5079698;28;20052;-63
2023/10/13 12:19:27;;;;;;;1.70;1.70;;;;;;;28.17;30.32;97197.28;5064075;28;20478;-63
2023/10/13 12:21:55;;;;;;;1.80;1.80;;;;;;;28.60;30.56;97235.84;5064551;28;20087;-64
2023/10/13 12:24:30;;;;;;;1.75;1.75;;;;;;;28.35;31.14;97199.25;5079230;28;20055;-63
2023/10/13 12:26:57;;;;;;;1.65;1.65;;;;;;;28.94;30.72;97241.81;5080821;28;20078;-66
2023/10/13 12:29:28;;;;;;;1.60;1.60;;;;;;;29.08;29.63;97248.84;5083981;28;20151;-65
2023/10/13 12:54:05;;;;;;;1.95;1.95;;;;;;;28.63;31.11;97240.59;5080668;28;20047;-61
2023/10/13 12:56:32;;;;;;;1.83;1.83;;;;;;;28.41;31.44;97206.66;5078900;28;20052;-61
2023/10/13 12:58:59;;;;;;;1.70;1.70;;;;;;;27.94;31.51;97139.03;5084490;28;20536;-63
2023/10/13 13:01:32;;;;;;;1.80;1.80;;;;;;;28.58;31.32;97239.19;5080656;28;20056;-65
2023/10/13 13:04:03;;;;;;;1.70;1.70;;;;;;;28.28;31.69;97242.38;5064688;28;20514;-60
2023/10/13 13:06:30;;;;;;;1.70;1.70;;;;;;;28.20;31.77;97229.75;5077870;28;20131;-60
2023/10/13 13:08:58;;;;;;;1.60;1.60;;;;;;;28.07;31.92;97250.66;5079574;28;20062;-62
2023/10/13 13:11:29;;;;;;;1.80;1.80;;;;;;;27.62;32.76;97242.28;5081108;28;20542;-63
2023/10/13 13:13:56;;;;;;;1.45;1.45;;;;;;;27.83;32.54;97241.28;5071250;28;20064;-60
2023/10/13 13:16:30;;;;;;;1.70;1.70;;;;;;;27.69;32.52;97213.47;5078372;28;20533;-61
2023/10/13 13:18:57;;;;;;;1.70;1.70;;;;;;;27.77;32.67;97245.25;5075070;28;20526;-62
2023/10/13 13:21:24;;;;;;;1.67;1.67;;;;;;;27.49;33.11;97244.50;5079610;28;20676;-64
2023/10/13 13:23:51;;;;;;;1.80;1.80;;;;;;;27.58;33.45;97241.66;5078587;28;20503;-60
2023/10/13 13:26:18;;;;;;;1.77;1.77;;;;;;;27.51;33.18;97247.69;5080620;28;20800;-61
2023/10/13 13:28:45;;;;;;;1.65;1.65;;;;;;;27.46;33.14;97239.78;5082052;28;20048;-61
2023/10/13 13:31:12;;;;;;;1.50;1.50;;;;;;;27.54;33.12;97246.72;5082842;28;20062;-60
2023/10/13 13:33:42;;;;;;;1.70;1.70;;;;;;;26.44;32.96;97014.16;5083269;28;20055;-59
2023/10/13 13:36:15;;;;;;;1.67;1.67;;;;;;;28.07;32.44;97244.97;5081166;28;20051;-61
2023/10/13 13:38:48;;;;;;;1.65;1.65;;;;;;;28.05;32.30;97207.66;5077944;28;20049;-63
2023/10/13 13:41:17;;;;;;;1.90;1.90;;;;;;;28.21;32.59;97243.50;5071849;28;20503;-61
2023/10/13 13:43:54;;;;;;;1.63;1.63;;;;;;;28.01;32.66;97238.34;5078819;28;20044;-60
2023/10/13 13:46:27;;;;;;;1.77;1.77;;;;;;;28.06;32.56;97240.56;5075152;28;20060;-62
2023/10/13 13:48:59;;;;;;;1.73;1.73;;;;;;;28.01;32.40;97241.22;5075854;28;20101;-62
2023/10/13 13:51:27;;;;;;;1.73;1.73;;;;;;;26.83;32.79;97111.84;5077192;28;20055;-63
2023/10/13 13:53:58;;;;;;;2.00;2.00;;;;;;;28.17;32.86;97240.81;5071619;28;20079;-64
2023/10/13 13:56:28;;;;;;;1.63;1.63;;;;;;;28.21;32.78;97237.00;5072083;28;20185;-61
2023/10/13 13:59:06;;;;;;;1.50;1.50;;;;;;;28.09;32.91;97239.59;5075767;28;20052;-62
2023/10/13 14:01:36;;;;;;;1.45;1.45;;;;;;;27.52;33.04;97158.16;5077540;28;20192;-62
2023/10/13 14:04:06;;;;;;;1.85;1.85;;;;;;;27.96;33.17;97219.06;5077266;28;20140;-61
2023/10/13 14:06:34;;;;;;;1.52;1.52;;;;;;;28.13;33.46;97243.06;5077065;28;20048;-59
2023/10/13 14:09:32;;;;;;;1.58;1.58;;;;;;;27.95;32.94;97208.97;5083096;28;20048;-60
2023/10/13 14:14:55;;;;;;;1.52;1.52;;;;;;;25.80;33.16;96938.75;5058018;28;20058;-63
2023/10/13 14:17:28;;;;;;;1.67;1.67;;;;;;;27.64;33.41;97239.75;5076021;28;20434;-60
2023/10/13 14:19:56;;;;;;;1.80;1.80;;;;;;;27.50;33.47;97233.94;5082572;28;20066;-61
2023/10/13 14:22:27;;;;;;;1.60;1.60;;;;;;;27.41;33.57;97243.25;4906093;28;5002456;-60
2023/10/13 14:24:57;;;;;;;1.50;1.50;;;;;;;26.78;33.82;97163.66;5072931;28;20516;-61
2023/10/13 14:27:25;;;;;;;1.60;1.60;;;;;;;27.25;33.98;97240.72;5083777;28;20044;-62
2023/10/13 14:29:52;;;;;;;1.63;1.63;;;;;;;27.25;34.53;97234.25;5083395;28;20110;-61
2023/10/13 14:32:24;;;;;;;1.50;1.50;;;;;;;27.24;34.30;97244.03;5082217;28;20129;-61
2023/10/13 14:34:54;;;;;;;1.48;1.48;;;;;;;27.15;34.30;97242.00;5083535;28;20068;-62
2023/10/13 14:37:31;;;;;;;1.45;1.45;;;;;;;27.11;34.60;97235.69;5083835;28;20052;-62
2023/10/13 14:39:59;;;;;;;1.42;1.42;;;;;;;27.01;34.87;97242.66;5081954;28;20056;-61
2023/10/13 14:42:28;;;;;;;1.70;1.70;;;;;;;26.94;35.13;97245.00;5082008;28;20059;-61
2023/10/13 14:44:57;;;;;;;1.55;1.55;;;;;;;26.90;34.92;97241.53;5066075;28;20576;-60
2023/10/13 14:47:25;;;;;;;1.52;1.52;;;;;;;26.90;34.76;97242.34;5062793;28;20148;-63
2023/10/13 14:49:54;;;;;;;1.40;1.40;;;;;;;26.85;35.12;97242.16;5063426;28;20130;-61
2023/10/13 14:52:22;;;;;;;1.48;1.48;;;;;;;26.69;35.40;97243.28;5061429;28;20700;-62
2023/10/13 14:54:55;;;;;;;1.40;1.40;;;;;;;26.05;35.64;97164.84;5061462;28;20044;-61
2023/10/13 14:57:25;;;;;;;1.30;1.30;;;;;;;26.56;35.59;97251.09;5063266;28;20060;-61
2023/10/13 14:59:57;;;;;;;1.42;1.42;;;;;;;24.69;35.74;96979.91;5061614;28;20057;-61
2023/10/13 15:02:24;;;;;;;1.60;1.60;;;;;;;26.21;36.39;97250.56;5063061;28;20049;-61
2023/10/13 15:04:51;;;;;;;1.30;1.30;;;;;;;26.03;36.97;97246.88;5063279;28;20483;-60
2023/10/13 15:07:19;;;;;;;1.50;1.50;;;;;;;25.81;37.42;97252.59;5063085;28;20531;-62
2023/10/13 15:09:49;;;;;;;1.20;1.20;;;;;;;25.68;37.63;97253.94;5063028;28;20135;-61
2023/10/13 15:12:17;;;;;;;1.50;1.50;;;;;;;25.55;38.29;97261.72;5063894;28;20756;-64